sensor_id;sensor_type;location;lat;lon;timestamp;P1;durP1;ratioP1;P2;durP2;ratioP2
58294;SDS011;45705;55.592;37.460;2023-06-24T00:02:01;19.48;;;16.48;;
58294;SDS011;45705;55.592;37.460;2023-06-24T00:04:27;23.23;;;16.02;;
58294;SDS011;45705;55.592;37.460;2023-06-24T00:06:53;17.83;;;15.45;;
58294;SDS011;45705;55.592;37.460;2023-06-24T00:09:21;20.30;;;15.40;;
58294;SDS011;45705;55.592;37.460;2023-06-24T00:11:47;20.77;;;14.32;;
58294;SDS011;45705;55.592;37.460;2023-06-24T00:14:13;18.63;;;14.40;;
58294;SDS011;45705;55.592;37.460;2023-06-24T00:16:42;21.88;;;14.65;;
58294;SDS011;45705;55.592;37.460;2023-06-24T00:19:07;19.00;;;14.55;;
58294;SDS011;45705;55.592;37.460;2023-06-24T00:21:33;19.27;;;14.38;;
58294;SDS011;45705;55.592;37.460;2023-06-24T00:24:02;20.50;;;14.52;;
58294;SDS011;45705;55.592;37.460;2023-06-24T00:26:30;16.50;;;13.65;;
58294;SDS011;45705;55.592;37.460;2023-06-24T00:28:57;16.83;;;13.73;;
58294;SDS011;45705;55.592;37.460;2023-06-24T00:31:23;18.08;;;13.38;;
58294;SDS011;45705;55.592;37.460;2023-06-24T00:33:49;16.00;;;13.30;;
58294;SDS011;45705;55.592;37.460;2023-06-24T00:36:17;18.50;;;13.83;;
58294;SDS011;45705;55.592;37.460;2023-06-24T00:38:43;19.35;;;15.45;;
58294;SDS011;45705;55.592;37.460;2023-06-24T00:41:09;17.73;;;14.45;;
58294;SDS011;45705;55.592;37.460;2023-06-24T00:43:36;17.50;;;14.38;;
58294;SDS011;45705;55.592;37.460;2023-06-24T00:46:04;16.48;;;13.98;;
58294;SDS011;45705;55.592;37.460;2023-06-24T00:48:31;17.45;;;13.82;;
58294;SDS011;45705;55.592;37.460;2023-06-24T00:50:58;17.50;;;13.65;;
58294;SDS011;45705;55.592;37.460;2023-06-24T00:53:26;18.75;;;13.45;;
58294;SDS011;45705;55.592;37.460;2023-06-24T00:55:52;17.25;;;13.13;;
58294;SDS011;45705;55.592;37.460;2023-06-24T00:58:21;16.23;;;13.63;;
58294;SDS011;45705;55.592;37.460;2023-06-24T01:00:47;19.75;;;13.05;;
58294;SDS011;45705;55.592;37.460;2023-06-24T01:03:26;19.50;;;13.15;;
58294;SDS011;45705;55.592;37.460;2023-06-24T01:05:56;19.98;;;13.55;;
58294;SDS011;45705;55.592;37.460;2023-06-24T01:08:22;17.17;;;12.77;;
58294;SDS011;45705;55.592;37.460;2023-06-24T01:10:49;16.92;;;13.43;;
58294;SDS011;45705;55.592;37.460;2023-06-24T01:13:17;19.38;;;13.27;;
58294;SDS011;45705;55.592;37.460;2023-06-24T01:15:43;18.38;;;12.88;;
58294;SDS011;45705;55.592;37.460;2023-06-24T01:18:11;17.83;;;12.38;;
58294;SDS011;45705;55.592;37.460;2023-06-24T01:20:50;14.52;;;12.75;;
58294;SDS011;45705;55.592;37.460;2023-06-24T01:39:52;17.45;;;12.25;;
58294;SDS011;45705;55.592;37.460;2023-06-24T01:42:26;17.58;;;12.68;;
58294;SDS011;45705;55.592;37.460;2023-06-24T01:44:54;14.90;;;12.35;;
58294;SDS011;45705;55.592;37.460;2023-06-24T01:47:23;16.85;;;12.75;;
58294;SDS011;45705;55.592;37.460;2023-06-24T01:49:52;14.45;;;12.40;;
58294;SDS011;45705;55.592;37.460;2023-06-24T01:52:23;15.77;;;12.80;;
58294;SDS011;45705;55.592;37.460;2023-06-24T01:54:50;14.70;;;12.07;;
58294;SDS011;45705;55.592;37.460;2023-06-24T01:57:17;13.18;;;11.55;;
58294;SDS011;45705;55.592;37.460;2023-06-24T01:59:45;12.30;;;10.93;;
58294;SDS011;45705;55.592;37.460;2023-06-24T02:02:12;12.95;;;11.15;;
58294;SDS011;45705;55.592;37.460;2023-06-24T02:04:39;15.00;;;10.93;;
58294;SDS011;45705;55.592;37.460;2023-06-24T02:07:06;12.98;;;10.43;;
58294;SDS011;45705;55.592;37.460;2023-06-24T02:09:36;12.27;;;9.75;;
58294;SDS011;45705;55.592;37.460;2023-06-24T02:12:05;15.82;;;9.98;;
58294;SDS011;45705;55.592;37.460;2023-06-24T02:14:32;10.88;;;9.27;;
58294;SDS011;45705;55.592;37.460;2023-06-24T02:16:59;11.02;;;9.45;;
58294;SDS011;45705;55.592;37.460;2023-06-24T02:19:29;10.27;;;8.65;;
58294;SDS011;45705;55.592;37.460;2023-06-24T02:21:56;9.05;;;8.07;;
58294;SDS011;45705;55.592;37.460;2023-06-24T02:24:24;9.82;;;8.48;;
58294;SDS011;45705;55.592;37.460;2023-06-24T02:26:51;11.05;;;8.63;;
58294;SDS011;45705;55.592;37.460;2023-06-24T02:29:18;11.38;;;7.72;;
58294;SDS011;45705;55.592;37.460;2023-06-24T02:31:48;10.18;;;7.20;;
58294;SDS011;45705;55.592;37.460;2023-06-24T02:34:15;8.82;;;7.53;;
58294;SDS011;45705;55.592;37.460;2023-06-24T02:36:41;9.90;;;8.00;;
58294;SDS011;45705;55.592;37.460;2023-06-24T02:39:07;10.27;;;7.85;;
58294;SDS011;45705;55.592;37.460;2023-06-24T02:41:33;8.82;;;7.82;;
58294;SDS011;45705;55.592;37.460;2023-06-24T02:43:58;7.80;;;7.00;;
58294;SDS011;45705;55.592;37.460;2023-06-24T02:46:25;8.88;;;6.78;;
58294;SDS011;45705;55.592;37.460;2023-06-24T02:48:55;6.45;;;5.82;;
58294;SDS011;45705;55.592;37.460;2023-06-24T02:51:24;8.40;;;6.10;;
58294;SDS011;45705;55.592;37.460;2023-06-24T02:53:51;6.30;;;5.55;;
58294;SDS011;45705;55.592;37.460;2023-06-24T02:56:22;8.23;;;5.55;;
58294;SDS011;45705;55.592;37.460;2023-06-24T02:58:50;8.15;;;5.38;;
58294;SDS011;45705;55.592;37.460;2023-06-24T03:01:21;5.97;;;4.95;;
58294;SDS011;45705;55.592;37.460;2023-06-24T03:03:54;6.63;;;5.70;;
58294;SDS011;45705;55.592;37.460;2023-06-24T03:06:21;7.93;;;4.57;;
58294;SDS011;45705;55.592;37.460;2023-06-24T03:08:50;4.32;;;3.88;;
58294;SDS011;45705;55.592;37.460;2023-06-24T03:11:19;4.05;;;3.22;;
58294;SDS011;45705;55.592;37.460;2023-06-24T03:13:45;6.45;;;3.60;;
58294;SDS011;45705;55.592;37.460;2023-06-24T03:16:17;3.50;;;3.20;;
58294;SDS011;45705;55.592;37.460;2023-06-24T03:18:52;3.30;;;3.00;;
58294;SDS011;45705;55.592;37.460;2023-06-24T03:21:19;4.47;;;2.80;;
58294;SDS011;45705;55.592;37.460;2023-06-24T03:23:45;4.93;;;3.08;;
58294;SDS011;45705;55.592;37.460;2023-06-24T03:26:14;3.22;;;2.78;;
58294;SDS011;45705;55.592;37.460;2023-06-24T03:28:41;1.85;;;1.60;;
58294;SDS011;45705;55.592;37.460;2023-06-24T03:31:12;1.90;;;1.80;;
58294;SDS011;45705;55.592;37.460;2023-06-24T03:33:41;4.28;;;1.80;;
58294;SDS011;45705;55.592;37.460;2023-06-24T03:36:11;1.65;;;1.48;;
58294;SDS011;45705;55.592;37.460;2023-06-24T03:38:38;3.20;;;1.40;;
58294;SDS011;45705;55.592;37.460;2023-06-24T03:41:05;2.45;;;1.63;;
58294;SDS011;45705;55.592;37.460;2023-06-24T03:43:32;1.60;;;1.50;;
58294;SDS011;45705;55.592;37.460;2023-06-24T03:45:58;4.03;;;1.52;;
58294;SDS011;45705;55.592;37.460;2023-06-24T03:48:27;1.40;;;1.30;;
58294;SDS011;45705;55.592;37.460;2023-06-24T03:50:53;1.50;;;1.30;;
58294;SDS011;45705;55.592;37.460;2023-06-24T03:53:20;1.10;;;1.00;;
58294;SDS011;45705;55.592;37.460;2023-06-24T03:55:46;2.13;;;1.30;;
58294;SDS011;45705;55.592;37.460;2023-06-24T03:58:12;1.55;;;1.27;;
58294;SDS011;45705;55.592;37.460;2023-06-24T04:00:39;2.35;;;1.13;;
58294;SDS011;45705;55.592;37.460;2023-06-24T04:03:09;1.90;;;1.42;;
58294;SDS011;45705;55.592;37.460;2023-06-24T04:05:38;1.30;;;1.20;;
58294;SDS011;45705;55.592;37.460;2023-06-24T04:08:04;2.35;;;1.25;;
58294;SDS011;45705;55.592;37.460;2023-06-24T04:10:31;1.45;;;1.10;;
58294;SDS011;45705;55.592;37.460;2023-06-24T04:12:57;2.78;;;1.17;;
58294;SDS011;45705;55.592;37.460;2023-06-24T04:15:23;2.05;;;1.17;;
58294;SDS011;45705;55.592;37.460;2023-06-24T04:17:49;1.60;;;1.30;;
58294;SDS011;45705;55.592;37.460;2023-06-24T04:20:14;1.70;;;1.30;;
58294;SDS011;45705;55.592;37.460;2023-06-24T04:22:40;1.83;;;1.30;;
58294;SDS011;45705;55.592;37.460;2023-06-24T04:25:07;1.48;;;1.30;;
58294;SDS011;45705;55.592;37.460;2023-06-24T04:27:34;2.03;;;1.15;;
58294;SDS011;45705;55.592;37.460;2023-06-24T04:30:01;1.67;;;1.20;;
58294;SDS011;45705;55.592;37.460;2023-06-24T04:32:29;1.42;;;1.08;;
58294;SDS011;45705;55.592;37.460;2023-06-24T04:34:54;2.75;;;1.10;;
58294;SDS011;45705;55.592;37.460;2023-06-24T04:37:21;1.40;;;1.30;;
58294;SDS011;45705;55.592;37.460;2023-06-24T04:39:48;4.78;;;1.20;;
58294;SDS011;45705;55.592;37.460;2023-06-24T04:42:14;3.17;;;1.20;;
58294;SDS011;45705;55.592;37.460;2023-06-24T04:44:40;2.35;;;1.27;;
58294;SDS011;45705;55.592;37.460;2023-06-24T04:47:05;4.22;;;1.35;;
58294;SDS011;45705;55.592;37.460;2023-06-24T04:49:31;1.20;;;1.10;;
58294;SDS011;45705;55.592;37.460;2023-06-24T04:51:59;1.92;;;1.45;;
58294;SDS011;45705;55.592;37.460;2023-06-24T04:54:26;1.70;;;1.10;;
58294;SDS011;45705;55.592;37.460;2023-06-24T04:56:52;1.40;;;1.20;;
58294;SDS011;45705;55.592;37.460;2023-06-24T04:59:20;1.35;;;1.20;;
58294;SDS011;45705;55.592;37.460;2023-06-24T05:01:47;1.30;;;1.20;;
58294;SDS011;45705;55.592;37.460;2023-06-24T05:04:13;2.05;;;1.10;;
58294;SDS011;45705;55.592;37.460;2023-06-24T05:06:38;3.10;;;1.45;;
58294;SDS011;45705;55.592;37.460;2023-06-24T05:09:04;7.13;;;2.10;;
58294;SDS011;45705;55.592;37.460;2023-06-24T05:11:29;2.78;;;2.10;;
58294;SDS011;45705;55.592;37.460;2023-06-24T05:13:55;3.63;;;1.77;;
58294;SDS011;45705;55.592;37.460;2023-06-24T05:16:21;2.25;;;1.73;;
58294;SDS011;45705;55.592;37.460;2023-06-24T05:18:49;2.00;;;1.80;;
58294;SDS011;45705;55.592;37.460;2023-06-24T05:21:15;1.83;;;1.70;;
58294;SDS011;45705;55.592;37.460;2023-06-24T05:23:41;4.80;;;1.52;;
58294;SDS011;45705;55.592;37.460;2023-06-24T05:26:07;1.42;;;1.33;;
58294;SDS011;45705;55.592;37.460;2023-06-24T05:28:32;1.45;;;1.20;;
58294;SDS011;45705;55.592;37.460;2023-06-24T05:30:58;2.22;;;1.42;;
58294;SDS011;45705;55.592;37.460;2023-06-24T05:33:23;3.67;;;2.92;;
58294;SDS011;45705;55.592;37.460;2023-06-24T05:35:49;3.75;;;2.58;;
58294;SDS011;45705;55.592;37.460;2023-06-24T05:38:16;3.80;;;1.20;;
58294;SDS011;45705;55.592;37.460;2023-06-24T05:40:41;5.05;;;1.20;;
58294;SDS011;45705;55.592;37.460;2023-06-24T05:43:07;3.22;;;1.20;;
58294;SDS011;45705;55.592;37.460;2023-06-24T05:45:32;1.92;;;1.20;;
58294;SDS011;45705;55.592;37.460;2023-06-24T05:47:58;2.65;;;1.30;;
58294;SDS011;45705;55.592;37.460;2023-06-24T05:50:24;2.28;;;1.35;;
58294;SDS011;45705;55.592;37.460;2023-06-24T05:52:49;1.45;;;1.30;;
58294;SDS011;45705;55.592;37.460;2023-06-24T05:55:15;5.45;;;1.27;;
58294;SDS011;45705;55.592;37.460;2023-06-24T05:57:40;3.38;;;1.08;;
58294;SDS011;45705;55.592;37.460;2023-06-24T06:00:06;2.05;;;1.55;;
58294;SDS011;45705;55.592;37.460;2023-06-24T06:02:41;2.28;;;1.20;;
58294;SDS011;45705;55.592;37.460;2023-06-24T06:05:07;3.85;;;1.17;;
58294;SDS011;45705;55.592;37.460;2023-06-24T06:07:33;1.73;;;1.23;;
58294;SDS011;45705;55.592;37.460;2023-06-24T06:10:00;3.10;;;1.10;;
58294;SDS011;45705;55.592;37.460;2023-06-24T06:12:26;1.48;;;1.00;;
58294;SDS011;45705;55.592;37.460;2023-06-24T06:14:51;1.55;;;1.30;;
58294;SDS011;45705;55.592;37.460;2023-06-24T06:17:17;1.40;;;1.17;;
58294;SDS011;45705;55.592;37.460;2023-06-24T06:19:42;4.00;;;1.45;;
58294;SDS011;45705;55.592;37.460;2023-06-24T06:22:11;5.78;;;1.60;;
58294;SDS011;45705;55.592;37.460;2023-06-24T06:24:39;1.20;;;1.13;;
58294;SDS011;45705;55.592;37.460;2023-06-24T06:27:04;1.83;;;1.23;;
58294;SDS011;45705;55.592;37.460;2023-06-24T06:29:34;1.35;;;1.10;;
58294;SDS011;45705;55.592;37.460;2023-06-24T06:31:59;1.50;;;1.10;;
58294;SDS011;45705;55.592;37.460;2023-06-24T06:34:25;2.28;;;1.50;;
58294;SDS011;45705;55.592;37.460;2023-06-24T06:36:51;1.20;;;1.10;;
58294;SDS011;45705;55.592;37.460;2023-06-24T06:39:16;4.82;;;1.20;;
58294;SDS011;45705;55.592;37.460;2023-06-24T06:41:42;1.33;;;1.10;;
58294;SDS011;45705;55.592;37.460;2023-06-24T06:44:14;3.58;;;1.80;;
58294;SDS011;45705;55.592;37.460;2023-06-24T06:46:40;6.78;;;2.13;;
58294;SDS011;45705;55.592;37.460;2023-06-24T06:49:06;3.33;;;1.85;;
58294;SDS011;45705;55.592;37.460;2023-06-24T06:51:31;5.60;;;1.48;;
58294;SDS011;45705;55.592;37.460;2023-06-24T06:53:57;1.85;;;1.40;;
58294;SDS011;45705;55.592;37.460;2023-06-24T06:56:23;2.95;;;1.58;;
58294;SDS011;45705;55.592;37.460;2023-06-24T07:01:24;4.68;;;1.80;;
58294;SDS011;45705;55.592;37.460;2023-06-24T07:03:50;1.40;;;1.20;;
58294;SDS011;45705;55.592;37.460;2023-06-24T07:06:19;3.30;;;1.30;;
58294;SDS011;45705;55.592;37.460;2023-06-24T07:08:45;3.13;;;1.38;;
58294;SDS011;45705;55.592;37.460;2023-06-24T07:11:11;6.47;;;2.00;;
58294;SDS011;45705;55.592;37.460;2023-06-24T07:13:37;2.78;;;1.58;;
58294;SDS011;45705;55.592;37.460;2023-06-24T07:16:02;4.28;;;1.60;;
58294;SDS011;45705;55.592;37.460;2023-06-24T07:18:28;2.22;;;1.70;;
58294;SDS011;45705;55.592;37.460;2023-06-24T07:20:55;1.63;;;1.42;;
58294;SDS011;45705;55.592;37.460;2023-06-24T07:23:22;4.22;;;1.58;;
58294;SDS011;45705;55.592;37.460;2023-06-24T07:25:47;3.58;;;1.70;;
58294;SDS011;45705;55.592;37.460;2023-06-24T07:28:13;2.53;;;1.48;;
58294;SDS011;45705;55.592;37.460;2023-06-24T07:30:40;1.95;;;1.73;;
58294;SDS011;45705;55.592;37.460;2023-06-24T07:33:07;1.58;;;1.40;;
58294;SDS011;45705;55.592;37.460;2023-06-24T07:35:33;5.97;;;2.75;;
58294;SDS011;45705;55.592;37.460;2023-06-24T07:37:58;3.47;;;2.00;;
58294;SDS011;45705;55.592;37.460;2023-06-24T07:40:25;3.33;;;1.63;;
58294;SDS011;45705;55.592;37.460;2023-06-24T07:42:51;2.30;;;2.10;;
58294;SDS011;45705;55.592;37.460;2023-06-24T07:45:16;4.43;;;2.70;;
58294;SDS011;45705;55.592;37.460;2023-06-24T07:47:42;2.10;;;1.90;;
58294;SDS011;45705;55.592;37.460;2023-06-24T07:50:08;2.33;;;2.08;;
58294;SDS011;45705;55.592;37.460;2023-06-24T07:52:36;4.25;;;1.77;;
58294;SDS011;45705;55.592;37.460;2023-06-24T07:55:02;5.82;;;1.95;;
58294;SDS011;45705;55.592;37.460;2023-06-24T07:57:29;4.28;;;2.30;;
58294;SDS011;45705;55.592;37.460;2023-06-24T07:59:55;4.53;;;2.55;;
58294;SDS011;45705;55.592;37.460;2023-06-24T08:02:21;4.53;;;2.53;;
58294;SDS011;45705;55.592;37.460;2023-06-24T08:04:49;6.57;;;2.83;;
58294;SDS011;45705;55.592;37.460;2023-06-24T08:07:15;3.63;;;2.55;;
58294;SDS011;45705;55.592;37.460;2023-06-24T08:09:41;4.63;;;2.40;;
58294;SDS011;45705;55.592;37.460;2023-06-24T08:12:06;3.83;;;2.40;;
58294;SDS011;45705;55.592;37.460;2023-06-24T08:14:32;3.65;;;2.65;;
58294;SDS011;45705;55.592;37.460;2023-06-24T08:16:58;3.25;;;2.85;;
58294;SDS011;45705;55.592;37.460;2023-06-24T08:19:24;4.63;;;2.92;;
58294;SDS011;45705;55.592;37.460;2023-06-24T08:21:49;3.35;;;2.70;;
58294;SDS011;45705;55.592;37.460;2023-06-24T08:24:15;3.08;;;2.70;;
58294;SDS011;45705;55.592;37.460;2023-06-24T08:26:41;3.30;;;2.90;;
58294;SDS011;45705;55.592;37.460;2023-06-24T08:29:06;6.03;;;2.97;;
58294;SDS011;45705;55.592;37.460;2023-06-24T08:31:32;5.28;;;2.90;;
58294;SDS011;45705;55.592;37.460;2023-06-24T08:34:01;10.98;;;3.17;;
58294;SDS011;45705;55.592;37.460;2023-06-24T08:36:28;5.53;;;3.25;;
58294;SDS011;45705;55.592;37.460;2023-06-24T08:38:54;5.53;;;2.80;;
58294;SDS011;45705;55.592;37.460;2023-06-24T08:41:20;4.15;;;3.00;;
58294;SDS011;45705;55.592;37.460;2023-06-24T08:43:48;7.18;;;3.20;;
58294;SDS011;45705;55.592;37.460;2023-06-24T08:46:14;4.43;;;2.95;;
58294;SDS011;45705;55.592;37.460;2023-06-24T08:48:42;6.43;;;3.10;;
58294;SDS011;45705;55.592;37.460;2023-06-24T08:51:10;6.57;;;3.35;;
58294;SDS011;45705;55.592;37.460;2023-06-24T08:53:38;7.82;;;3.85;;
58294;SDS011;45705;55.592;37.460;2023-06-24T08:56:08;10.20;;;6.72;;
58294;SDS011;45705;55.592;37.460;2023-06-24T08:58:35;9.38;;;4.18;;
58294;SDS011;45705;55.592;37.460;2023-06-24T09:01:01;14.65;;;4.18;;
58294;SDS011;45705;55.592;37.460;2023-06-24T09:03:28;5.80;;;4.35;;
58294;SDS011;45705;55.592;37.460;2023-06-24T09:05:53;6.63;;;4.05;;
58294;SDS011;45705;55.592;37.460;2023-06-24T09:08:20;5.32;;;3.70;;
58294;SDS011;45705;55.592;37.460;2023-06-24T09:10:52;4.22;;;3.40;;
58294;SDS011;45705;55.592;37.460;2023-06-24T09:13:27;4.90;;;3.55;;
58294;SDS011;45705;55.592;37.460;2023-06-24T09:16:00;7.03;;;4.65;;
58294;SDS011;45705;55.592;37.460;2023-06-24T09:18:36;9.00;;;4.13;;
58294;SDS011;45705;55.592;37.460;2023-06-24T09:21:02;4.88;;;3.67;;
58294;SDS011;45705;55.592;37.460;2023-06-24T09:23:28;7.93;;;4.28;;
58294;SDS011;45705;55.592;37.460;2023-06-24T09:25:57;7.15;;;4.00;;
58294;SDS011;45705;55.592;37.460;2023-06-24T09:28:28;4.90;;;3.35;;
58294;SDS011;45705;55.592;37.460;2023-06-24T09:31:09;7.07;;;4.00;;
58294;SDS011;45705;55.592;37.460;2023-06-24T09:33:35;8.82;;;3.80;;
58294;SDS011;45705;55.592;37.460;2023-06-24T09:36:01;3.25;;;2.92;;
58294;SDS011;45705;55.592;37.460;2023-06-24T09:38:36;5.78;;;3.10;;
58294;SDS011;45705;55.592;37.460;2023-06-24T09:41:04;9.25;;;6.30;;
58294;SDS011;45705;55.592;37.460;2023-06-24T09:43:34;4.57;;;3.13;;
58294;SDS011;45705;55.592;37.460;2023-06-24T09:46:05;6.45;;;3.55;;
58294;SDS011;45705;55.592;37.460;2023-06-24T09:48:35;9.02;;;3.47;;
58294;SDS011;45705;55.592;37.460;2023-06-24T09:51:01;5.13;;;3.65;;
58294;SDS011;45705;55.592;37.460;2023-06-24T09:55:59;6.85;;;3.70;;
58294;SDS011;45705;55.592;37.460;2023-06-24T09:58:26;6.25;;;3.92;;
58294;SDS011;45705;55.592;37.460;2023-06-24T10:00:56;4.80;;;3.38;;
58294;SDS011;45705;55.592;37.460;2023-06-24T10:03:26;6.32;;;3.70;;
58294;SDS011;45705;55.592;37.460;2023-06-24T10:05:53;7.22;;;4.07;;
58294;SDS011;45705;55.592;37.460;2023-06-24T10:08:18;5.25;;;4.28;;
58294;SDS011;45705;55.592;37.460;2023-06-24T10:10:45;13.13;;;9.23;;
58294;SDS011;45705;55.592;37.460;2023-06-24T10:13:11;5.30;;;4.60;;
58294;SDS011;45705;55.592;37.460;2023-06-24T10:15:37;7.28;;;5.90;;
58294;SDS011;45705;55.592;37.460;2023-06-24T10:18:03;6.00;;;4.38;;
58294;SDS011;45705;55.592;37.460;2023-06-24T10:21:09;4.20;;;3.80;;
58294;SDS011;45705;55.592;37.460;2023-06-24T10:26:28;9.90;;;4.78;;
58294;SDS011;45705;55.592;37.460;2023-06-24T10:34:47;10.05;;;6.57;;
58294;SDS011;45705;55.592;37.460;2023-06-24T10:44:49;11.25;;;6.75;;
58294;SDS011;45705;55.592;37.460;2023-06-24T10:47:16;9.20;;;6.63;;
58294;SDS011;45705;55.592;37.460;2023-06-24T10:49:43;10.55;;;6.45;;
58294;SDS011;45705;55.592;37.460;2023-06-24T10:52:11;10.50;;;7.13;;
58294;SDS011;45705;55.592;37.460;2023-06-24T10:54:37;11.40;;;6.60;;
58294;SDS011;45705;55.592;37.460;2023-06-24T10:57:04;7.70;;;6.18;;
58294;SDS011;45705;55.592;37.460;2023-06-24T10:59:40;8.43;;;6.25;;
58294;SDS011;45705;55.592;37.460;2023-06-24T11:02:09;9.27;;;6.78;;
58294;SDS011;45705;55.592;37.460;2023-06-24T11:04:46;7.32;;;6.63;;
58294;SDS011;45705;55.592;37.460;2023-06-24T11:07:13;10.70;;;6.43;;
58294;SDS011;45705;55.592;37.460;2023-06-24T11:09:40;8.88;;;6.85;;
58294;SDS011;45705;55.592;37.460;2023-06-24T11:12:08;7.80;;;6.80;;
58294;SDS011;45705;55.592;37.460;2023-06-24T11:14:35;11.93;;;6.53;;
58294;SDS011;45705;55.592;37.460;2023-06-24T11:17:02;11.45;;;6.97;;
58294;SDS011;45705;55.592;37.460;2023-06-24T11:19:29;11.88;;;7.75;;
58294;SDS011;45705;55.592;37.460;2023-06-24T11:22:02;8.83;;;7.27;;
58294;SDS011;45705;55.592;37.460;2023-06-24T11:24:28;10.20;;;6.95;;
58294;SDS011;45705;55.592;37.460;2023-06-24T11:26:54;9.05;;;7.00;;
58294;SDS011;45705;55.592;37.460;2023-06-24T11:29:21;10.75;;;7.03;;
58294;SDS011;45705;55.592;37.460;2023-06-24T11:31:48;8.43;;;6.90;;
58294;SDS011;45705;55.592;37.460;2023-06-24T11:34:14;13.23;;;7.57;;
58294;SDS011;45705;55.592;37.460;2023-06-24T11:36:40;12.30;;;6.90;;
58294;SDS011;45705;55.592;37.460;2023-06-24T11:39:07;7.68;;;6.45;;
58294;SDS011;45705;55.592;37.460;2023-06-24T11:41:32;7.38;;;5.65;;
58294;SDS011;45705;55.592;37.460;2023-06-24T11:43:58;7.05;;;5.93;;
58294;SDS011;45705;55.592;37.460;2023-06-24T11:46:24;9.15;;;6.90;;
58294;SDS011;45705;55.592;37.460;2023-06-24T11:48:51;8.35;;;7.55;;
58294;SDS011;45705;55.592;37.460;2023-06-24T11:51:17;10.38;;;8.27;;
58294;SDS011;45705;55.592;37.460;2023-06-24T11:53:44;11.90;;;7.60;;
58294;SDS011;45705;55.592;37.460;2023-06-24T11:56:11;13.80;;;8.73;;
58294;SDS011;45705;55.592;37.460;2023-06-24T11:58:37;11.63;;;7.00;;
58294;SDS011;45705;55.592;37.460;2023-06-24T12:01:06;10.50;;;6.50;;
58294;SDS011;45705;55.592;37.460;2023-06-24T12:03:33;7.85;;;6.25;;
58294;SDS011;45705;55.592;37.460;2023-06-24T12:05:59;8.23;;;6.88;;
58294;SDS011;45705;55.592;37.460;2023-06-24T12:08:25;11.35;;;6.50;;
58294;SDS011;45705;55.592;37.460;2023-06-24T12:10:51;12.23;;;7.32;;
58294;SDS011;45705;55.592;37.460;2023-06-24T12:13:17;9.40;;;6.22;;
58294;SDS011;45705;55.592;37.460;2023-06-24T12:15:42;9.80;;;6.78;;
58294;SDS011;45705;55.592;37.460;2023-06-24T12:18:08;9.98;;;6.57;;
58294;SDS011;45705;55.592;37.460;2023-06-24T12:20:35;14.25;;;6.78;;
58294;SDS011;45705;55.592;37.460;2023-06-24T12:23:01;20.15;;;11.65;;
58294;SDS011;45705;55.592;37.460;2023-06-24T12:25:31;13.25;;;6.57;;
58294;SDS011;45705;55.592;37.460;2023-06-24T12:27:57;11.20;;;5.78;;
58294;SDS011;45705;55.592;37.460;2023-06-24T12:30:24;9.70;;;6.97;;
58294;SDS011;45705;55.592;37.460;2023-06-24T12:32:50;9.93;;;6.78;;
58294;SDS011;45705;55.592;37.460;2023-06-24T12:35:16;13.68;;;6.60;;
58294;SDS011;45705;55.592;37.460;2023-06-24T12:37:42;19.13;;;6.25;;
58294;SDS011;45705;55.592;37.460;2023-06-24T12:40:10;8.00;;;5.68;;
58294;SDS011;45705;55.592;37.460;2023-06-24T12:42:36;8.55;;;5.38;;
58294;SDS011;45705;55.592;37.460;2023-06-24T12:45:02;13.95;;;5.40;;
58294;SDS011;45705;55.592;37.460;2023-06-24T12:47:30;13.20;;;5.55;;
58294;SDS011;45705;55.592;37.460;2023-06-24T12:49:55;11.82;;;5.03;;
58294;SDS011;45705;55.592;37.460;2023-06-24T12:52:21;8.02;;;5.00;;
58294;SDS011;45705;55.592;37.460;2023-06-24T12:54:46;10.45;;;4.88;;
58294;SDS011;45705;55.592;37.460;2023-06-24T12:57:14;8.02;;;4.50;;
58294;SDS011;45705;55.592;37.460;2023-06-24T12:59:40;6.82;;;4.32;;
58294;SDS011;45705;55.592;37.460;2023-06-24T13:02:06;7.13;;;3.63;;
58294;SDS011;45705;55.592;37.460;2023-06-24T13:04:32;6.15;;;3.67;;
58294;SDS011;45705;55.592;37.460;2023-06-24T13:06:57;8.45;;;3.95;;
58294;SDS011;45705;55.592;37.460;2023-06-24T13:09:23;7.93;;;3.53;;
58294;SDS011;45705;55.592;37.460;2023-06-24T13:11:49;7.88;;;4.55;;
58294;SDS011;45705;55.592;37.460;2023-06-24T13:14:16;7.43;;;4.35;;
58294;SDS011;45705;55.592;37.460;2023-06-24T13:16:41;11.05;;;6.88;;
58294;SDS011;45705;55.592;37.460;2023-06-24T13:19:07;7.95;;;5.20;;
58294;SDS011;45705;55.592;37.460;2023-06-24T13:21:33;6.97;;;5.32;;
58294;SDS011;45705;55.592;37.460;2023-06-24T13:23:58;7.40;;;5.22;;
58294;SDS011;45705;55.592;37.460;2023-06-24T13:26:24;9.05;;;6.75;;
58294;SDS011;45705;55.592;37.460;2023-06-24T13:28:50;14.88;;;6.30;;
58294;SDS011;45705;55.592;37.460;2023-06-24T13:31:16;11.77;;;6.28;;
58294;SDS011;45705;55.592;37.460;2023-06-24T13:33:42;6.25;;;5.07;;
58294;SDS011;45705;55.592;37.460;2023-06-24T13:36:08;8.38;;;6.70;;
58294;SDS011;45705;55.592;37.460;2023-06-24T13:38:50;5.80;;;5.18;;
58294;SDS011;45705;55.592;37.460;2023-06-24T13:41:16;13.00;;;5.97;;
58294;SDS011;45705;55.592;37.460;2023-06-24T13:43:42;13.15;;;6.18;;
58294;SDS011;45705;55.592;37.460;2023-06-24T13:46:07;11.50;;;5.82;;
58294;SDS011;45705;55.592;37.460;2023-06-24T13:48:33;7.95;;;5.38;;
58294;SDS011;45705;55.592;37.460;2023-06-24T13:50:58;5.50;;;4.97;;
58294;SDS011;45705;55.592;37.460;2023-06-24T13:53:24;16.70;;;5.43;;
58294;SDS011;45705;55.592;37.460;2023-06-24T13:55:50;8.45;;;6.45;;
58294;SDS011;45705;55.592;37.460;2023-06-24T13:58:16;9.30;;;5.22;;
58294;SDS011;45705;55.592;37.460;2023-06-24T14:00:41;9.23;;;5.53;;
58294;SDS011;45705;55.592;37.460;2023-06-24T14:03:07;8.45;;;6.05;;
58294;SDS011;45705;55.592;37.460;2023-06-24T14:05:33;5.63;;;4.18;;
58294;SDS011;45705;55.592;37.460;2023-06-24T14:07:58;6.95;;;4.50;;
58294;SDS011;45705;55.592;37.460;2023-06-24T14:10:24;9.25;;;4.60;;
58294;SDS011;45705;55.592;37.460;2023-06-24T14:12:50;9.93;;;5.05;;
58294;SDS011;45705;55.592;37.460;2023-06-24T14:15:15;6.45;;;4.38;;
58294;SDS011;45705;55.592;37.460;2023-06-24T14:17:41;9.88;;;4.78;;
58294;SDS011;45705;55.592;37.460;2023-06-24T14:20:07;5.75;;;4.40;;
58294;SDS011;45705;55.592;37.460;2023-06-24T14:22:33;10.75;;;5.35;;
58294;SDS011;45705;55.592;37.460;2023-06-24T14:24:59;6.25;;;4.78;;
58294;SDS011;45705;55.592;37.460;2023-06-24T14:27:24;9.57;;;4.90;;
58294;SDS011;45705;55.592;37.460;2023-06-24T14:29:50;7.20;;;4.93;;
58294;SDS011;45705;55.592;37.460;2023-06-24T14:32:16;10.00;;;5.03;;
58294;SDS011;45705;55.592;37.460;2023-06-24T14:34:41;7.45;;;3.90;;
58294;SDS011;45705;55.592;37.460;2023-06-24T14:37:07;4.97;;;4.28;;
58294;SDS011;45705;55.592;37.460;2023-06-24T14:39:33;10.35;;;4.55;;
58294;SDS011;45705;55.592;37.460;2023-06-24T14:41:58;7.82;;;4.38;;
58294;SDS011;45705;55.592;37.460;2023-06-24T14:44:24;10.30;;;5.45;;
58294;SDS011;45705;55.592;37.460;2023-06-24T14:46:50;8.80;;;5.43;;
58294;SDS011;45705;55.592;37.460;2023-06-24T14:49:15;9.85;;;5.05;;
58294;SDS011;45705;55.592;37.460;2023-06-24T14:51:42;8.25;;;5.07;;
58294;SDS011;45705;55.592;37.460;2023-06-24T14:54:08;8.43;;;5.28;;
58294;SDS011;45705;55.592;37.460;2023-06-24T14:56:33;7.05;;;4.55;;
58294;SDS011;45705;55.592;37.460;2023-06-24T14:58:59;8.02;;;4.68;;
58294;SDS011;45705;55.592;37.460;2023-06-24T15:01:25;4.72;;;4.10;;
58294;SDS011;45705;55.592;37.460;2023-06-24T15:03:50;6.63;;;4.57;;
58294;SDS011;45705;55.592;37.460;2023-06-24T15:06:16;8.13;;;5.60;;